Time;durP1;ratioP1;P1;durP2;ratioP2;P2;SDS_P1;SDS_P2;PMS_P1;PMS_P2;Temp;Humidity;BMP_temperature;BMP_pressure;BME280_temperature;BME280_humidity;BME280_pressure;Samples;Min_cycle;Max_cycle;Signal;HPM_P1;HPM_P2
2021/05/11 00:00:43;;;;;;;3.40;3.10;;;18.40;1.00;;;;;;5113856;27;20436;-81
2021/05/11 00:03:09;;;;;;;3.43;2.90;;;18.40;1.00;;;;;;5125233;27;20958;-80
2021/05/11 00:05:35;;;;;;;3.00;2.63;;;18.40;1.00;;;;;;5119839;27;20414;-78
2021/05/11 00:08:02;;;;;;;3.07;2.80;;;18.40;1.00;;;;;;5126760;27;20420;-80
2021/05/11 00:10:28;;;;;;;4.20;3.00;;;18.40;1.00;;;;;;5127179;27;20452;-81
2021/05/11 00:12:56;;;;;;;3.83;2.70;;;18.40;1.00;;;;;;5129913;27;21241;-82
2021/05/11 00:15:22;;;;;;;3.80;2.97;;;18.30;1.00;;;;;;5127439;27;20435;-82
2021/05/11 00:17:48;;;;;;;2.73;2.47;;;18.30;1.00;;;;;;5128164;27;20464;-82
2021/05/11 00:20:17;;;;;;;3.10;2.40;;;18.30;1.00;;;;;;5126584;27;20439;-80
2021/05/11 00:22:44;;;;;;;2.83;2.53;;;18.30;1.00;;;;;;5129749;27;21855;-80
2021/05/11 00:25:11;;;;;;;3.23;2.93;;;18.20;1.00;;;;;;5128893;27;21565;-81
2021/05/11 00:27:38;;;;;;;3.10;2.80;;;18.20;1.00;;;;;;5129438;27;20445;-82
2021/05/11 00:30:08;;;;;;;2.90;2.70;;;18.20;1.00;;;;;;5122970;27;20460;-80
2021/05/11 00:32:35;;;;;;;2.90;2.70;;;18.20;1.00;;;;;;5130419;27;20452;-82
2021/05/11 00:35:01;;;;;;;5.50;2.97;;;18.10;1.00;;;;;;5124791;27;20456;-80
2021/05/11 00:37:27;;;;;;;2.77;2.40;;;18.10;1.00;;;;;;5128616;27;20479;-80
2021/05/11 00:39:57;;;;;;;3.73;3.03;;;18.10;1.00;;;;;;5135328;27;20654;-82
2021/05/11 00:42:26;;;;;;;3.80;2.90;;;18.10;1.00;;;;;;5158218;27;20436;-82
2021/05/11 00:44:52;;;;;;;3.47;2.87;;;18.10;1.00;;;;;;5151156;27;21335;-79
2021/05/11 00:47:19;;;;;;;3.63;2.80;;;18.10;1.00;;;;;;5151431;27;20440;-81
2021/05/11 00:49:48;;;;;;;4.43;3.40;;;18.10;1.00;;;;;;5147954;27;20425;-82
2021/05/11 00:52:14;;;;;;;6.10;2.87;;;18.10;1.00;;;;;;5152892;27;20477;-81
2021/05/11 00:54:41;;;;;;;5.87;3.10;;;18.00;1.00;;;;;;5154101;27;20432;-82
2021/05/11 00:57:09;;;;;;;2.93;2.73;;;18.00;1.00;;;;;;5148451;27;20431;-82
2021/05/11 00:59:35;;;;;;;3.20;2.90;;;17.90;1.00;;;;;;5147864;27;20428;-82
2021/05/11 01:02:03;;;;;;;2.87;2.50;;;17.90;1.00;;;;;;5139415;27;20444;-81
2021/05/11 01:04:30;;;;;;;3.23;2.93;;;17.90;1.00;;;;;;5140318;27;20484;-82
2021/05/11 01:06:57;;;;;;;3.33;3.00;;;17.80;1.00;;;;;;5140442;27;20487;-81
2021/05/11 01:09:24;;;;;;;3.40;2.60;;;17.80;1.00;;;;;;5123705;27;20460;-81
2021/05/11 01:11:52;;;;;;;3.60;3.00;;;17.70;1.00;;;;;;5131027;27;20491;-82
2021/05/11 01:14:18;;;;;;;4.70;2.77;;;17.70;1.00;;;;;;5123661;27;21023;-82
2021/05/11 01:16:48;;;;;;;4.80;2.70;;;17.70;1.00;;;;;;5124576;27;20427;-81
2021/05/11 01:19:17;;;;;;;3.90;3.20;;;17.70;1.00;;;;;;5127149;27;20456;-83
2021/05/11 01:21:50;;;;;;;4.53;3.70;;;17.70;1.00;;;;;;5127044;27;20442;-82
2021/05/11 01:24:25;;;;;;;6.03;3.70;;;17.60;1.00;;;;;;5116822;27;20456;-83
2021/05/11 01:26:55;;;;;;;3.60;3.30;;;17.60;1.00;;;;;;5124900;27;20523;-81
2021/05/11 01:29:36;;;;;;;3.80;3.50;;;17.60;1.00;;;;;;5119402;27;20536;-82
2021/05/11 01:48:55;;;;;;;4.17;3.77;;;17.30;1.00;;;;;;5093557;27;20444;-82
2021/05/11 01:51:30;;;;;;;5.07;3.67;;;17.20;1.00;;;;;;5116415;27;20433;-79
2021/05/11 01:54:19;;;;;;;5.70;3.83;;;17.20;1.00;;;;;;5112889;27;20654;-83
2021/05/11 02:11:08;;;;;;;7.00;4.80;;;17.10;1.00;;;;;;5115963;27;20438;-81
2021/05/11 02:24:33;;;;;;;4.60;4.17;;;16.90;1.00;;;;;;5110585;27;20466;-79
2021/05/11 02:26:59;;;;;;;6.37;4.30;;;16.90;1.00;;;;;;5112366;27;20462;-81
2021/05/11 02:29:26;;;;;;;4.57;4.13;;;16.90;1.00;;;;;;5114349;27;20449;-80
2021/05/11 02:31:52;;;;;;;6.63;5.10;;;16.80;1.00;;;;;;5117009;27;20460;-81
2021/05/11 02:34:19;;;;;;;5.70;4.63;;;16.80;1.00;;;;;;5120811;27;20522;-81
2021/05/11 02:36:45;;;;;;;5.47;4.97;;;16.80;1.00;;;;;;5120057;27;21092;-81
2021/05/11 02:39:11;;;;;;;5.27;4.77;;;16.80;1.00;;;;;;5124529;27;20437;-81
2021/05/11 02:41:40;;;;;;;5.80;5.30;;;16.80;1.00;;;;;;5114312;27;20456;-81
2021/05/11 02:44:06;;;;;;;5.63;5.10;;;16.80;1.00;;;;;;5106643;27;20453;-80
2021/05/11 02:46:34;;;;;;;4.80;4.40;;;16.80;1.00;;;;;;5112302;27;20455;-80
2021/05/11 02:49:02;;;;;;;5.67;4.50;;;16.80;1.00;;;;;;5110010;27;20467;-82
2021/05/11 02:51:28;;;;;;;5.90;4.63;;;16.70;1.00;;;;;;5111964;27;20884;-81
2021/05/11 02:53:54;;;;;;;5.23;4.80;;;16.70;1.00;;;;;;5116070;27;20486;-81
2021/05/11 02:56:20;;;;;;;8.27;5.20;;;16.70;1.00;;;;;;5109486;27;20461;-81
2021/05/11 02:58:49;;;;;;;5.10;4.63;;;16.60;1.00;;;;;;5113492;27;20477;-81
2021/05/11 03:01:15;;;;;;;5.23;4.83;;;16.60;1.00;;;;;;5110668;27;20460;-81
2021/05/11 03:03:42;;;;;;;6.10;5.50;;;16.60;1.00;;;;;;5115410;27;20457;-81
2021/05/11 03:06:10;;;;;;;5.63;5.20;;;16.60;1.00;;;;;;5112470;27;20445;-82
2021/05/11 03:08:37;;;;;;;7.43;5.10;;;16.60;1.00;;;;;;5114428;27;20416;-82
2021/05/11 03:11:03;;;;;;;6.13;5.53;;;16.60;1.00;;;;;;5114174;27;20427;-82
2021/05/11 03:13:29;;;;;;;6.97;6.37;;;16.60;1.00;;;;;;5118928;27;21025;-82
2021/05/11 03:15:55;;;;;;;5.90;5.17;;;16.50;1.00;;;;;;5113932;27;20471;-82
2021/05/11 03:18:21;;;;;;;6.33;5.73;;;16.50;1.00;;;;;;5114557;27;20455;-82
2021/05/11 03:20:48;;;;;;;5.80;5.30;;;16.50;1.00;;;;;;5114945;27;20526;-82
2021/05/11 03:23:15;;;;;;;6.07;5.57;;;16.50;1.00;;;;;;5118217;27;20465;-80
2021/05/11 03:25:41;;;;;;;6.13;5.63;;;16.50;1.00;;;;;;5110111;27;20499;-81
2021/05/11 03:28:08;;;;;;;7.40;5.73;;;16.50;1.00;;;;;;5113177;27;20434;-80
2021/05/11 03:30:34;;;;;;;7.33;5.77;;;16.40;1.00;;;;;;5113407;27;20511;-79
2021/05/11 03:33:00;;;;;;;15.40;6.53;;;16.40;1.00;;;;;;5113962;27;20570;-80
2021/05/11 03:35:26;;;;;;;9.13;8.40;;;16.40;1.00;;;;;;5111640;27;20490;-80
2021/05/11 03:37:54;;;;;;;7.80;7.00;;;16.40;1.00;;;;;;5112388;27;20648;-81
2021/05/11 03:40:20;;;;;;;9.10;6.20;;;16.40;1.00;;;;;;5112818;27;20961;-80
2021/05/11 03:42:52;;;;;;;7.10;6.30;;;16.30;1.00;;;;;;5113151;27;20414;-80
2021/05/11 03:45:19;;;;;;;9.57;7.20;;;16.30;1.00;;;;;;5113831;27;20467;-81
2021/05/11 03:47:48;;;;;;;9.97;6.87;;;16.30;1.00;;;;;;5112447;27;20446;-80
2021/05/11 03:50:15;;;;;;;9.67;7.03;;;16.20;1.00;;;;;;5113998;27;20469;-80
2021/05/11 03:52:42;;;;;;;10.10;7.00;;;16.30;1.00;;;;;;5116210;27;20442;-80
2021/05/11 03:55:09;;;;;;;10.57;7.90;;;16.20;1.00;;;;;;5111355;27;20443;-80
2021/05/11 03:57:36;;;;;;;7.07;6.37;;;16.20;1.00;;;;;;5112689;27;20454;-78
2021/05/11 04:00:04;;;;;;;7.83;7.07;;;16.20;1.00;;;;;;5124834;27;20866;-80
2021/05/11 04:02:31;;;;;;;8.87;7.97;;;16.20;1.00;;;;;;5119588;27;20962;-82
2021/05/11 04:04:57;;;;;;;10.70;8.40;;;16.20;1.00;;;;;;5117576;27;20441;-80
2021/05/11 04:07:24;;;;;;;12.80;8.50;;;16.20;1.00;;;;;;5116972;27;20488;-78
2021/05/11 04:09:53;;;;;;;13.93;12.53;;;16.20;1.00;;;;;;5116406;27;20439;-80
2021/05/11 04:17:52;;;;;;;9.57;8.67;;;16.20;1.00;;;;;;5118237;27;20627;-80
2021/05/11 04:20:18;;;;;;;9.80;8.67;;;16.30;1.00;;;;;;5116073;27;21127;-80
2021/05/11 04:22:44;;;;;;;8.87;8.00;;;16.40;1.00;;;;;;5118228;27;20512;-80
2021/05/11 04:25:11;;;;;;;9.30;8.40;;;16.50;1.00;;;;;;5113714;27;21184;-80
2021/05/11 04:27:39;;;;;;;14.63;10.43;;;16.60;1.00;;;;;;5119694;27;20542;-79
2021/05/11 04:30:06;;;;;;;11.33;9.50;;;16.60;1.00;;;;;;5116609;27;20411;-80
2021/05/11 04:32:32;;;;;;;10.93;9.93;;;16.70;1.00;;;;;;5120990;27;20466;-80
2021/05/11 04:34:59;;;;;;;12.23;8.33;;;16.80;1.00;;;;;;5115951;27;20485;-80
2021/05/11 04:37:25;;;;;;;10.90;8.03;;;16.90;1.00;;;;;;5120847;27;20513;-77
2021/05/11 04:39:52;;;;;;;12.27;9.57;;;16.90;1.00;;;;;;5115395;27;20624;-77
2021/05/11 04:42:18;;;;;;;9.40;8.50;;;17.00;1.00;;;;;;5119697;27;21419;-77
2021/05/11 04:44:46;;;;;;;8.93;7.70;;;17.10;1.00;;;;;;5116934;27;20589;-78
2021/05/11 04:47:17;;;;;;;8.40;7.47;;;17.20;1.00;;;;;;5132910;27;20440;-82
2021/05/11 04:49:45;;;;;;;8.50;7.60;;;17.20;1.00;;;;;;5159497;27;20425;-82
2021/05/11 04:52:11;;;;;;;8.93;8.00;;;17.30;1.00;;;;;;5139258;27;20510;-82
2021/05/11 04:54:37;;;;;;;11.10;8.83;;;17.40;1.00;;;;;;5142802;27;20569;-81
2021/05/11 04:57:05;;;;;;;9.30;8.43;;;17.50;1.00;;;;;;5145092;27;20410;-81
2021/05/11 04:59:31;;;;;;;9.13;8.37;;;17.60;1.00;;;;;;5144214;27;20463;-79
2021/05/11 05:02:00;;;;;;;11.00;8.00;;;17.60;1.00;;;;;;5141868;27;20495;-81
2021/05/11 05:04:28;;;;;;;8.40;7.70;;;17.60;1.00;;;;;;5137666;27;20480;-83
2021/05/11 05:06:54;;;;;;;10.07;9.10;;;17.70;1.00;;;;;;5131797;27;20460;-83
2021/05/11 05:09:21;;;;;;;8.27;7.67;;;17.80;1.00;;;;;;5123276;27;20441;-84
2021/05/11 05:11:49;;;;;;;8.90;8.00;;;17.80;1.00;;;;;;5124503;27;20512;-84
2021/05/11 05:14:15;;;;;;;8.40;7.53;;;17.80;1.00;;;;;;5120536;27;20957;-83
2021/05/11 05:16:42;;;;;;;9.70;8.80;;;17.90;1.00;;;;;;5120750;27;20436;-83
2021/05/11 05:19:09;;;;;;;8.30;7.50;;;17.90;1.00;;;;;;5128879;27;20527;-83
2021/05/11 05:21:38;;;;;;;9.63;8.23;;;17.90;1.00;;;;;;5118862;27;20455;-82
2021/05/11 05:24:09;;;;;;;12.10;7.83;;;18.00;1.00;;;;;;5123020;27;20477;-83
2021/05/11 05:26:36;;;;;;;11.80;8.10;;;18.10;1.00;;;;;;5119606;27;20446;-84
2021/05/11 05:29:03;;;;;;;7.63;6.93;;;18.20;1.00;;;;;;5123724;27;20447;-83
2021/05/11 05:31:30;;;;;;;10.20;8.27;;;18.30;1.00;;;;;;5124344;27;20455;-84
2021/05/11 05:33:57;;;;;;;8.53;7.70;;;18.50;1.00;;;;;;5125605;27;20837;-83
2021/05/11 05:36:24;;;;;;;8.90;7.50;;;18.70;1.00;;;;;;5128255;27;20493;-83
2021/05/11 05:38:51;;;;;;;10.00;8.13;;;18.90;1.00;;;;;;5135468;27;20461;-84
2021/05/11 05:41:21;;;;;;;9.43;8.53;;;19.10;1.00;;;;;;5134811;27;20491;-84
2021/05/11 05:43:51;;;;;;;9.77;8.10;;;19.30;1.00;;;;;;5129778;27;20574;-83
2021/05/11 05:46:18;;;;;;;14.33;9.10;;;19.40;1.00;;;;;;5131299;27;20222;-83
2021/05/11 05:48:45;;;;;;;10.30;7.23;;;19.60;1.00;;;;;;5125819;27;21268;-79
2021/05/11 05:51:12;;;;;;;9.80;8.00;;;19.70;1.00;;;;;;5117698;27;20456;-78
2021/05/11 05:53:43;;;;;;;7.87;7.03;;;19.90;1.00;;;;;;5123656;27;20435;-81
2021/05/11 05:56:12;;;;;;;9.13;7.97;;;19.90;1.00;;;;;;5123402;27;20455;-81
2021/05/11 05:58:38;;;;;;;10.20;7.70;;;19.90;1.00;;;;;;5121862;27;20472;-81
2021/05/11 06:01:08;;;;;;;7.90;7.20;;;20.00;1.00;;;;;;5120111;27;20432;-80
2021/05/11 06:03:38;;;;;;;7.90;7.10;;;20.20;1.00;;;;;;5127369;27;20425;-81
2021/05/11 06:06:14;;;;;;;7.20;6.50;;;20.30;1.00;;;;;;5121739;27;20491;-84
2021/05/11 06:08:51;;;;;;;8.20;7.50;;;20.30;1.00;;;;;;5125491;27;21171;-84
2021/05/11 06:11:31;;;;;;;9.90;8.07;;;20.40;1.00;;;;;;5126772;27;20461;-84
2021/05/11 06:14:08;;;;;;;9.10;7.10;;;20.30;1.00;;;;;;5124942;27;20422;-85
2021/05/11 06:19:21;;;;;;;8.70;7.20;;;20.60;1.00;;;;;;5124096;27;20780;-85
2021/05/11 06:21:51;;;;;;;7.73;6.93;;;20.70;1.00;;;;;;5131485;27;20447;-85
2021/05/11 06:27:05;;;;;;;8.50;7.80;;;21.10;1.00;;;;;;2975591;25;20418;-84
2021/05/11 06:29:35;;;;;;;50.33;21.60;;;21.10;1.00;;;;;;5128016;27;20489;-84
2021/05/11 06:32:03;;;;;;;7.57;6.90;;;21.00;1.00;;;;;;5131203;27;20692;-86
2021/05/11 06:34:45;;;;;;;7.93;7.13;;;21.10;1.00;;;;;;5139577;27;20431;-87
2021/05/11 06:37:11;;;;;;;10.07;6.80;;;21.30;1.00;;;;;;5152939;27;20501;-84
2021/05/11 06:39:40;;;;;;;9.63;7.40;;;21.50;1.00;;;;;;5150210;27;20426;-85
2021/05/11 06:42:09;;;;;;;7.80;7.07;;;21.40;1.00;;;;;;5153484;27;20427;-83
2021/05/11 06:44:42;;;;;;;7.73;6.93;;;21.50;1.00;;;;;;5149653;27;20411;-85
2021/05/11 06:50:12;;;;;;;7.70;7.10;;;21.70;1.00;;;;;;5125705;27;20454;-82
2021/05/11 06:52:53;;;;;;;6.53;5.97;;;22.00;1.00;;;;;;5127291;27;20452;-82
2021/05/11 06:55:20;;;;;;;8.63;6.70;;;22.30;1.00;;;;;;5118476;27;21250;-84
2021/05/11 06:57:47;;;;;;;8.50;6.03;;;22.50;1.00;;;;;;5118783;27;20725;-81
2021/05/11 07:00:15;;;;;;;8.17;7.47;;;22.50;1.00;;;;;;5119890;27;20562;-83
2021/05/11 07:02:41;;;;;;;12.07;7.33;;;22.70;1.00;;;;;;5126610;27;20468;-83
2021/05/11 07:05:08;;;;;;;9.63;7.43;;;22.80;1.00;;;;;;5118148;27;20448;-83
2021/05/11 07:07:36;;;;;;;8.53;7.73;;;22.90;1.00;;;;;;5126351;27;20566;-83
2021/05/11 07:10:11;;;;;;;13.10;7.23;;;23.10;1.00;;;;;;5127065;27;20476;-83
2021/05/11 07:15:42;;;;;;;11.27;9.20;;;22.90;1.00;;;;;;5407960;22;20505;-84
2021/05/11 07:18:32;;;;;;;9.30;6.90;;;23.00;1.00;;;;;;5124448;27;20420;-82
2021/05/11 07:21:30;;;;;;;8.73;7.30;;;23.10;1.00;;;;;;5122547;27;20446;-84
2021/05/11 07:27:10;;;;;;;8.77;6.70;;;23.50;1.00;;;;;;5052990;28;20998;-81
2021/05/11 07:29:44;;;;;;;10.17;7.30;;;23.60;1.00;;;;;;5110566;27;20456;-79
2021/05/11 07:32:12;;;;;;;6.40;5.90;;;23.50;1.00;;;;;;5116203;27;20450;-79
2021/05/11 07:34:42;;;;;;;13.87;11.87;;;23.40;1.00;;;;;;5111308;27;20898;-79
2021/05/11 07:37:08;;;;;;;7.43;6.53;;;23.40;1.00;;;;;;5113242;27;20467;-78
2021/05/11 07:39:35;;;;;;;6.07;5.57;;;23.40;1.00;;;;;;5115999;27;20557;-80
2021/05/11 07:42:01;;;;;;;8.07;5.97;;;23.60;1.00;;;;;;5112181;27;20445;-78
2021/05/11 07:44:28;;;;;;;8.00;6.93;;;23.80;1.00;;;;;;5113517;27;20438;-80
2021/05/11 07:47:00;;;;;;;7.60;5.90;;;24.00;1.00;;;;;;5116432;27;20502;-80
2021/05/11 07:49:52;;;;;;;5.63;5.23;;;24.20;1.00;;;;;;5114227;27;20433;-81
2021/05/11 07:56:29;;;;;;;6.73;6.10;;;24.20;1.00;;;;;;5109892;27;20513;-79
2021/05/11 08:14:40;;;;;;;6.63;6.07;;;24.30;1.00;;;;;;5113144;27;20784;-78
2021/05/11 08:17:07;;;;;;;8.33;7.13;;;24.50;1.00;;;;;;5111519;27;20515;-79
2021/05/11 08:22:51;;;;;;;7.40;6.20;;;24.60;1.00;;;;;;5046105;28;20435;-77
2021/05/11 08:28:07;;;;;;;7.33;6.47;;;24.80;1.00;;;;;;5106043;27;20564;-76
2021/05/11 08:30:34;;;;;;;7.00;6.33;;;25.10;1.00;;;;;;5114309;27;20455;-78
2021/05/11 08:33:00;;;;;;;6.80;6.23;;;25.60;1.00;;;;;;5111855;27;20455;-78
2021/05/11 08:35:27;;;;;;;6.80;5.27;;;26.10;1.00;;;;;;5112805;27;20478;-76
2021/05/11 08:37:54;;;;;;;6.80;4.97;;;26.50;1.00;;;;;;5111898;27;20460;-78
2021/05/11 08:40:20;;;;;;;6.50;5.90;;;26.90;1.00;;;;;;5122203;27;22501;-77
2021/05/11 08:42:46;;;;;;;11.63;7.90;;;27.10;1.00;;;;;;5117348;27;20520;-79
2021/05/11 08:45:15;;;;;;;9.73;6.53;;;27.10;1.00;;;;;;5122028;27;20687;-80
2021/05/11 08:47:49;;;;;;;13.43;6.97;;;27.30;1.00;;;;;;5121774;27;21355;-78
2021/05/11 08:50:17;;;;;;;9.10;5.37;;;27.50;1.00;;;;;;5129909;27;20446;-80
2021/05/11 08:52:54;;;;;;;7.10;6.07;;;27.60;1.00;;;;;;5135766;27;20402;-81
2021/05/11 09:06:47;;;;;;;7.30;5.10;;;27.80;1.00;;;;;;5095599;27;20561;-83
2021/05/11 09:09:34;;;;;;;5.83;5.33;;;27.80;1.00;;;;;;5089674;27;20980;-81
2021/05/11 09:15:40;;;;;;;7.30;5.57;;;27.80;1.00;;;;;;5133564;27;20410;-84
2021/05/11 09:23:50;;;;;;;6.37;5.67;;;28.50;1.00;;;;;;5119314;27;20475;-83
2021/05/11 09:26:33;;;;;;;7.47;6.10;;;28.90;1.00;;;;;;5115554;27;20896;-82
2021/05/11 09:29:05;;;;;;;5.20;4.80;;;29.90;1.00;;;;;;5118951;27;20448;-85
2021/05/11 09:31:47;;;;;;;5.37;4.97;;;31.10;1.00;;;;;;5115742;27;21151;-78
2021/05/11 09:34:24;;;;;;;7.47;5.90;;;31.70;1.00;;;;;;5114734;27;20462;-79
2021/05/11 09:45:40;;;;;;;9.40;5.57;;;33.00;1.00;;;;;;5131091;27;20468;-82
2021/05/11 09:56:37;;;;;;;5.77;4.80;;;34.80;1.00;;;;;;5119341;27;20451;-82
2021/05/11 10:48:41;;;;;;;5.20;4.50;;;41.10;1.00;;;;;;5120187;27;20454;-81
2021/05/11 10:51:18;;;;;;;4.70;4.13;;;41.50;1.00;;;;;;5120155;27;21202;-82
2021/05/11 10:53:58;;;;;;;4.53;4.23;;;41.30;1.00;;;;;;5115890;27;20430;-79
2021/05/11 10:56:55;;;;;;;5.57;4.10;;;41.40;1.00;;;;;;5125276;27;20404;-80
2021/05/11 10:59:30;;;;;;;5.53;4.10;;;41.70;1.00;;;;;;5118401;27;20464;-80
2021/05/11 11:01:59;;;;;;;5.60;4.60;;;41.90;1.00;;;;;;5126696;27;20472;-81
2021/05/11 11:04:29;;;;;;;5.33;4.17;;;42.20;1.00;;;;;;5126622;27;20448;-81
2021/05/11 11:07:07;;;;;;;7.00;4.80;;;41.90;1.00;;;;;;5121113;27;20472;-81
2021/05/11 11:09:36;;;;;;;5.20;4.70;;;41.50;1.00;;;;;;5116421;27;21154;-82
2021/05/11 11:12:05;;;;;;;5.00;4.60;;;41.50;1.00;;;;;;5119207;27;20215;-83
2021/05/11 11:14:39;;;;;;;12.57;6.80;;;41.50;1.00;;;;;;5123554;27;20556;-79
2021/05/11 11:17:07;;;;;;;7.67;4.77;;;41.70;1.00;;;;;;5121211;27;20385;-78
2021/05/11 11:19:35;;;;;;;6.97;4.63;;;42.00;1.00;;;;;;5116187;27;21138;-79
2021/05/11 11:24:48;;;;;;;6.40;5.27;;;42.90;1.00;;;;;;5121103;27;20596;-78
2021/05/11 11:27:15;;;;;;;6.00;5.17;;;43.10;1.00;;;;;;5121091;27;20444;-78
2021/05/11 11:29:43;;;;;;;11.90;6.03;;;42.80;1.00;;;;;;5117495;27;20459;-79
2021/05/11 11:32:09;;;;;;;5.03;4.63;;;43.10;1.00;;;;;;5120658;27;20563;-80
2021/05/11 11:34:36;;;;;;;5.97;5.30;;;43.10;1.00;;;;;;5121148;27;20441;-78
2021/05/11 11:37:04;;;;;;;4.67;4.27;;;43.30;1.00;;;;;;5116821;27;20505;-79
2021/05/11 11:39:33;;;;;;;5.07;4.67;;;43.30;1.00;;;;;;5120694;27;20491;-80
2021/05/11 11:42:01;;;;;;;4.30;4.00;;;43.50;1.00;;;;;;5118481;27;21311;-79
2021/05/11 11:44:35;;;;;;;4.50;4.20;;;43.30;1.00;;;;;;5140294;27;20463;-79
2021/05/11 11:47:04;;;;;;;7.10;4.30;;;43.00;1.00;;;;;;5120479;27;20527;-80
2021/05/11 11:49:32;;;;;;;5.50;5.00;;;43.40;1.00;;;;;;5122537;27;20420;-78
2021/05/11 11:52:05;;;;;;;5.63;4.87;;;43.80;1.00;;;;;;5136960;27;21625;-80
2021/05/11 11:54:36;;;;;;;5.00;4.50;;;44.10;1.00;;;;;;5114319;27;20456;-82
2021/05/11 11:59:56;;;;;;;4.40;4.00;;;43.10;1.00;;;;;;5120860;27;20463;-80
2021/05/11 12:02:22;;;;;;;4.73;4.30;;;42.00;1.00;;;;;;5117144;27;20460;-78
2021/05/11 12:04:48;;;;;;;6.90;5.20;;;42.30;1.00;;;;;;5111388;27;20468;-80
2021/05/11 12:07:16;;;;;;;5.17;3.67;;;43.40;1.00;;;;;;5113645;27;21808;-80
2021/05/11 12:09:46;;;;;;;5.47;4.65;;;43.10;1.00;;;;;;5116701;27;20410;-81
2021/05/11 12:12:14;;;;;;;7.67;4.00;;;43.40;1.00;;;;;;5128188;27;20227;-81
2021/05/11 12:14:41;;;;;;;5.87;4.13;;;43.90;1.00;;;;;;5121218;27;20529;-80
2021/05/11 12:17:07;;;;;;;4.60;4.20;;;44.50;1.00;;;;;;5114347;27;20444;-81
2021/05/11 12:19:33;;;;;;;7.30;4.47;;;45.20;1.00;;;;;;5116824;27;20487;-82
2021/05/11 12:22:01;;;;;;;5.77;5.30;;;45.00;1.00;;;;;;5119372;27;20448;-84
2021/05/11 12:24:29;;;;;;;5.23;4.73;;;44.90;1.00;;;;;;5115836;27;20548;-81
2021/05/11 12:27:11;;;;;;;4.27;3.93;;;44.70;1.00;;;;;;5119285;27;20421;-82
2021/05/11 12:29:38;;;;;;;8.87;4.73;;;43.80;1.00;;;;;;5118570;27;20453;-82
2021/05/11 12:32:05;;;;;;;4.20;3.73;;;43.80;1.00;;;;;;5112028;27;20577;-83
2021/05/11 12:34:31;;;;;;;6.43;3.77;;;44.30;1.00;;;;;;5108964;27;20460;-80
2021/05/11 12:37:00;;;;;;;4.13;3.83;;;44.20;1.00;;;;;;5115579;27;20949;-80
2021/05/11 12:39:36;;;;;;;4.40;4.03;;;43.30;1.00;;;;;;5120614;27;21296;-81
2021/05/11 12:42:24;;;;;;;8.77;4.47;;;42.90;1.00;;;;;;5114406;27;20456;-83
2021/05/11 12:45:02;;;;;;;4.70;4.27;;;43.10;1.00;;;;;;5116843;27;20503;-81
2021/05/11 12:47:28;;;;;;;4.67;4.30;;;43.40;1.00;;;;;;5116173;27;20428;-82
2021/05/11 12:50:12;;;;;;;4.50;4.20;;;43.70;1.00;;;;;;5121384;27;21377;-81
2021/05/11 12:52:38;;;;;;;5.73;4.63;;;44.30;1.00;;;;;;5116767;27;21094;-83
2021/05/11 12:55:14;;;;;;;7.30;4.57;;;44.40;1.00;;;;;;5117428;27;20920;-81
2021/05/11 12:57:54;;;;;;;5.70;4.70;;;44.40;1.00;;;;;;5124112;27;20461;-83
2021/05/11 13:00:36;;;;;;;7.13;5.07;;;44.20;1.00;;;;;;5119218;27;21118;-81
2021/05/11 13:03:20;;;;;;;5.53;3.90;;;44.00;1.00;;;;;;5119874;27;20441;-82
2021/05/11 13:16:59;;;;;;;4.43;3.70;;;44.40;1.00;;;;;;5129184;27;20455;-80
2021/05/11 13:27:40;;;;;;;4.83;4.43;;;43.00;1.00;;;;;;5122825;27;20453;-81
2021/05/11 13:30:17;;;;;;;7.53;4.70;;;43.30;1.00;;;;;;5119033;27;20445;-82
2021/05/11 13:32:54;;;;;;;5.20;4.80;;;43.20;1.00;;;;;;5127918;27;20452;-81
2021/05/11 13:35:21;;;;;;;4.60;4.20;;;42.50;1.00;;;;;;5120637;27;20456;-82
2021/05/11 13:37:47;;;;;;;7.00;4.63;;;42.20;1.00;;;;;;5127391;27;20482;-81
2021/05/11 13:40:14;;;;;;;6.20;5.07;;;41.70;1.00;;;;;;5116863;27;20494;-81
2021/05/11 13:42:40;;;;;;;5.50;5.10;;;41.80;1.00;;;;;;5121833;27;20459;-82
2021/05/11 13:45:07;;;;;;;5.10;4.70;;;42.10;1.00;;;;;;5116624;27;20464;-80
2021/05/11 13:47:34;;;;;;;8.30;5.80;;;43.00;1.00;;;;;;5125469;27;20480;-82
2021/05/11 13:50:03;;;;;;;4.87;4.47;;;43.40;1.00;;;;;;5120948;27;20436;-82
2021/05/11 13:52:31;;;;;;;4.50;4.10;;;43.50;1.00;;;;;;5118583;27;20465;-83
2021/05/11 13:55:00;;;;;;;7.50;5.80;;;43.30;1.00;;;;;;5120659;27;20447;-81
2021/05/11 14:01:32;;;;;;;7.70;6.30;;;42.90;1.00;;;;;;5121671;27;20448;-81
2021/05/11 14:03:04;;;;;;;6.37;5.70;;;43.10;1.00;;;;;;5126481;27;20505;-82
2021/05/11 14:05:32;;;;;;;5.40;4.87;;;43.30;1.00;;;;;;5126794;27;20468;-83
2021/05/11 14:07:59;;;;;;;5.70;5.20;;;42.00;1.00;;;;;;5128413;27;20452;-82
2021/05/11 14:10:26;;;;;;;6.87;4.40;;;41.50;1.00;;;;;;5120827;27;20435;-81
2021/05/11 14:12:52;;;;;;;5.77;5.27;;;41.50;1.00;;;;;;5123953;27;20541;-81
2021/05/11 14:15:18;;;;;;;7.47;6.63;;;41.10;1.00;;;;;;5127730;27;20439;-82
2021/05/11 14:17:45;;;;;;;5.10;4.60;;;41.20;1.00;;;;;;5128405;27;20439;-82
2021/05/11 14:20:13;;;;;;;5.57;5.03;;;41.90;1.00;;;;;;5134382;27;20497;-82
2021/05/11 14:22:40;;;;;;;4.93;4.50;;;42.80;1.00;;;;;;5133444;27;21321;-81
2021/05/11 14:25:07;;;;;;;9.07;6.40;;;43.70;1.00;;;;;;5126261;27;21230;-82
2021/05/11 14:27:34;;;;;;;9.40;6.07;;;44.10;1.00;;;;;;5123461;27;21513;-81
2021/05/11 14:30:00;;;;;;;5.70;5.20;;;44.00;1.00;;;;;;5128802;27;20449;-82
2021/05/11 14:32:26;;;;;;;6.50;5.20;;;43.90;1.00;;;;;;5127353;27;20425;-81
2021/05/11 14:34:52;;;;;;;5.07;4.57;;;44.20;1.00;;;;;;5126699;27;20499;-82
2021/05/11 14:37:18;;;;;;;4.50;4.10;;;44.40;1.00;;;;;;5123888;27;20575;-81
2021/05/11 14:39:45;;;;;;;5.03;4.63;;;44.20;1.00;;;;;;5127017;27;20485;-81
2021/05/11 14:42:11;;;;;;;6.43;5.30;;;43.70;1.00;;;;;;5127795;27;21575;-82
2021/05/11 14:44:38;;;;;;;6.77;4.80;;;43.40;1.00;;;;;;5125179;27;20480;-81
2021/05/11 14:47:04;;;;;;;5.80;5.30;;;42.80;1.00;;;;;;5129821;27;20869;-82
2021/05/11 14:49:31;;;;;;;5.47;4.97;;;42.90;1.00;;;;;;5123739;27;20433;-81
2021/05/11 14:51:58;;;;;;;4.87;4.50;;;42.50;1.00;;;;;;5121785;27;20448;-84
2021/05/11 14:54:24;;;;;;;5.90;4.50;;;42.20;1.00;;;;;;5120587;27;20469;-82
2021/05/11 14:56:51;;;;;;;12.47;7.07;;;42.60;1.00;;;;;;5128738;27;20543;-81
2021/05/11 14:59:18;;;;;;;4.30;3.90;;;42.80;1.00;;;;;;5128774;27;20463;-82
2021/05/11 15:01:45;;;;;;;10.23;6.90;;;43.30;1.00;;;;;;5127977;27;20448;-82
2021/05/11 15:04:11;;;;;;;5.50;5.00;;;43.50;1.00;;;;;;5124586;27;21629;-81
2021/05/11 15:06:37;;;;;;;4.60;4.20;;;42.90;1.00;;;;;;5129933;27;20488;-81
2021/05/11 15:09:04;;;;;;;6.93;4.90;;;42.60;1.00;;;;;;5125063;27;20438;-80
2021/05/11 15:11:30;;;;;;;7.43;5.37;;;42.40;1.00;;;;;;5134124;27;20525;-82
2021/05/11 15:13:59;;;;;;;4.63;4.23;;;42.40;1.00;;;;;;5133131;27;20532;-81
2021/05/11 15:16:26;;;;;;;6.87;5.80;;;42.80;1.00;;;;;;5130968;27;20457;-81
2021/05/11 15:18:52;;;;;;;4.97;4.47;;;42.70;1.00;;;;;;5119152;27;20482;-78
2021/05/11 15:21:18;;;;;;;5.23;4.73;;;42.50;1.00;;;;;;5125728;27;20464;-81
2021/05/11 15:23:47;;;;;;;6.40;4.90;;;42.50;1.00;;;;;;5129089;27;20708;-83
2021/05/11 15:26:13;;;;;;;10.50;5.90;;;42.60;1.00;;;;;;5141857;27;20413;-82
2021/05/11 15:28:40;;;;;;;5.63;5.23;;;41.40;1.00;;;;;;5136297;27;20433;-83
2021/05/11 15:31:07;;;;;;;10.67;6.83;;;39.90;1.00;;;;;;5129151;27;20521;-82
2021/05/11 15:33:34;;;;;;;5.47;4.97;;;38.80;1.00;;;;;;5129746;27;20521;-83
2021/05/11 15:36:00;;;;;;;5.30;4.80;;;38.80;1.00;;;;;;5123630;27;20555;-82
2021/05/11 15:38:29;;;;;;;8.63;5.53;;;39.00;1.00;;;;;;5126091;27;20881;-82
2021/05/11 15:40:55;;;;;;;9.83;8.30;;;39.20;1.00;;;;;;5145806;27;20445;-81
2021/05/11 15:43:22;;;;;;;8.93;6.53;;;38.70;1.00;;;;;;5130350;27;20483;-83
2021/05/11 15:45:48;;;;;;;7.90;6.47;;;38.40;1.00;;;;;;5128353;27;20424;-80
2021/05/11 15:48:15;;;;;;;7.77;6.00;;;38.30;1.00;;;;;;5132621;27;20441;-82
2021/05/11 15:50:44;;;;;;;7.77;6.00;;;38.00;1.00;;;;;;5126606;27;20457;-82
2021/05/11 15:53:11;;;;;;;7.63;6.73;;;37.60;1.00;;;;;;5132343;27;20462;-81
2021/05/11 15:55:39;;;;;;;7.00;6.47;;;37.40;1.00;;;;;;5129343;27;20450;-81
2021/05/11 15:58:06;;;;;;;8.13;7.23;;;37.50;1.00;;;;;;5130106;27;20402;-82
2021/05/11 16:00:35;;;;;;;5.87;5.37;;;37.40;1.00;;;;;;5128123;27;20481;-82
2021/05/11 16:03:03;;;;;;;7.87;6.53;;;37.60;1.00;;;;;;5128321;27;20441;-82
2021/05/11 16:05:34;;;;;;;8.57;6.37;;;37.80;1.00;;;;;;5131018;27;20606;-83
2021/05/11 16:08:01;;;;;;;7.60;5.93;;;38.00;1.00;;;;;;5133416;27;20454;-82
2021/05/11 16:10:28;;;;;;;6.47;6.03;;;37.80;1.00;;;;;;5135792;27;20435;-82
2021/05/11 16:12:55;;;;;;;7.53;6.80;;;37.30;1.00;;;;;;5133689;27;21249;-82
2021/05/11 16:15:22;;;;;;;7.17;6.57;;;37.00;1.00;;;;;;5130269;27;21390;-82
2021/05/11 16:17:48;;;;;;;9.03;7.00;;;36.00;1.00;;;;;;5128493;27;20445;-81
2021/05/11 16:20:15;;;;;;;25.43;23.23;;;35.00;1.00;;;;;;5131095;27;20429;-81
2021/05/11 16:22:43;;;;;;;9.03;6.63;;;33.60;1.00;;;;;;5129513;27;20470;-81
2021/05/11 16:25:12;;;;;;;8.20;6.60;;;33.50;1.00;;;;;;5128485;27;20467;-82
2021/05/11 16:27:40;;;;;;;7.90;7.30;;;33.90;1.00;;;;;;5131139;27;20512;-82